K K — WDE8363 — position and weather

sailwx.info

Track history (hours):
 
Tides and Currents Weather Stations Pressure Air Temp Water Temp Dewpoint Dewpoint Depression Visibility Wind Speed Wind Dir Waves Ship Positions

K K

Owner: Lafayette Workboat Rentals LLC., Broussard, LA. More information available from US FCC via Universal Licensing System and Coast Guard Vessel Documentation Center.

Last reported at 2017-Nov-20 00:26 UTC. Time now 2017-Nov-22 07:16 UTC.
Position N 29°45' W 095°06'.

Length 16 m; draft 6 m.

Type: Ship (hazmat cat D). MMSI: 367404620.

Date/timePositionNaut miles runAvg speedWind from/ knotsBaromVisibWave heightAir tempDewpointWater temp
2017-Nov-20 00:26N 29°45' W 095°06'1 2.1
2017-Nov-19 23:58N 29°46' W 095°06'0 0.5
2017-Nov-19 23:30N 29°46' W 095°06'4 0.2
2017-Nov-19 03:38N 29°45' W 095°10'6 3.0
2017-Nov-19 01:47N 29°44' W 095°03'2 5.5
2017-Nov-19 01:23N 29°43' W 095°01'2 5.2
2017-Nov-19 00:59N 29°42' W 094°59'3 6.2
2017-Nov-19 00:30N 29°39' W 094°58'3 6.1
2017-Nov-19 00:00N 29°36' W 094°57'3 6.1
2017-Nov-18 23:30N 29°34' W 094°55'  
2017-Nov-10 23:53N 29°31' W 094°53'3 6.8
2017-Nov-10 23:30N 29°33' W 094°55'3 6.8
2017-Nov-10 23:00N 29°36' W 094°57'4 7.1
2017-Nov-10 22:30N 29°39' W 094°58'3 6.9
2017-Nov-10 22:00N 29°42' W 095°01'3 6.0
2017-Nov-10 21:26N 29°44' W 095°03'4 4.9
2017-Nov-10 20:39N 29°44' W 095°08'1 6.7
2017-Nov-10 20:30N 29°44' W 095°09'3 5.4
2017-Nov-10 19:53N 29°44' W 095°13'3 5.7
2017-Nov-10 19:26N 29°44' W 095°16'1 0.1
2017-Nov-10 12:41N 29°43' W 095°16'0 0.0
2017-Nov-10 12:29N 29°43' W 095°16'0 0.0
2017-Nov-10 12:00N 29°43' W 095°16'0 0.0
2017-Nov-10 11:30N 29°43' W 095°16'0 0.0
2017-Nov-10 11:00N 29°43' W 095°16'0 0.0
2017-Nov-10 10:30N 29°43' W 095°16'0 0.0
2017-Nov-10 10:00N 29°43' W 095°16'0 0.0
2017-Nov-10 09:30N 29°43' W 095°16'0 0.0
2017-Nov-10 09:00N 29°43' W 095°16'0 0.0
2017-Nov-10 08:30N 29°43' W 095°16'0 0.0
2017-Nov-10 08:00N 29°43' W 095°16'0 0.0
2017-Nov-10 07:30N 29°43' W 095°16'0 0.0
2017-Nov-10 07:00N 29°43' W 095°16'0 0.0
2017-Nov-10 06:30N 29°43' W 095°16'0 0.0
2017-Nov-10 06:00N 29°43' W 095°16'0 0.0
2017-Nov-10 05:30N 29°43' W 095°16'0 0.0
2017-Nov-10 05:00N 29°43' W 095°16'0 0.0
2017-Nov-10 04:30N 29°43' W 095°16'0 0.0
2017-Nov-10 04:00N 29°43' W 095°16'0 0.0
2017-Nov-10 03:29N 29°43' W 095°16'0 0.0
2017-Nov-10 02:58N 29°43' W 095°16'0 0.1
2017-Nov-10 02:30N 29°43' W 095°16'0 0.1
2017-Nov-10 01:57N 29°43' W 095°16'0 0.0
2017-Nov-10 01:28N 29°43' W 095°16'0 0.0
2017-Nov-10 01:00N 29°43' W 095°16'0 0.0
2017-Nov-10 00:29N 29°43' W 095°16'  
Track history (hours):
 
Tides and Currents Weather Stations Pressure Air Temp Water Temp Dewpoint Dewpoint Depression Visibility Wind Speed Wind Dir Waves Ship Positions

K K

Owner: Lafayette Workboat Rentals LLC., Broussard, LA. More information available from US FCC via Universal Licensing System and Coast Guard Vessel Documentation Center.

Last reported at 2017-Nov-20 00:26 UTC. Time now 2017-Nov-22 07:16 UTC.
Position N 29°45' W 095°06'.

Length 16 m; draft 6 m.

Type: Ship (hazmat cat D). MMSI: 367404620.

Date/timePositionNaut miles runAvg speedWind from/ knotsBaromVisibWave heightAir tempDewpointWater temp
2017-Nov-20 00:26N 29°45' W 095°06'1 2.1
2017-Nov-19 23:58N 29°46' W 095°06'0 0.5
2017-Nov-19 23:30N 29°46' W 095°06'4 0.2
2017-Nov-19 03:38N 29°45' W 095°10'6 3.0
2017-Nov-19 01:47N 29°44' W 095°03'2 5.5
2017-Nov-19 01:23N 29°43' W 095°01'2 5.2
2017-Nov-19 00:59N 29°42' W 094°59'3 6.2
2017-Nov-19 00:30N 29°39' W 094°58'3 6.1
2017-Nov-19 00:00N 29°36' W 094°57'3 6.1
2017-Nov-18 23:30N 29°34' W 094°55'  
2017-Nov-10 23:53N 29°31' W 094°53'3 6.8
2017-Nov-10 23:30N 29°33' W 094°55'3 6.8
2017-Nov-10 23:00N 29°36' W 094°57'4 7.1
2017-Nov-10 22:30N 29°39' W 094°58'3 6.9
2017-Nov-10 22:00N 29°42' W 095°01'3 6.0
2017-Nov-10 21:26N 29°44' W 095°03'4 4.9
2017-Nov-10 20:39N 29°44' W 095°08'1 6.7
2017-Nov-10 20:30N 29°44' W 095°09'3 5.4
2017-Nov-10 19:53N 29°44' W 095°13'3 5.7
2017-Nov-10 19:26N 29°44' W 095°16'1 0.1
2017-Nov-10 12:41N 29°43' W 095°16'0 0.0
2017-Nov-10 12:29N 29°43' W 095°16'0 0.0
2017-Nov-10 12:00N 29°43' W 095°16'0 0.0
2017-Nov-10 11:30N 29°43' W 095°16'0 0.0
2017-Nov-10 11:00N 29°43' W 095°16'0 0.0
2017-Nov-10 10:30N 29°43' W 095°16'0 0.0
2017-Nov-10 10:00N 29°43' W 095°16'0 0.0
2017-Nov-10 09:30N 29°43' W 095°16'0 0.0
2017-Nov-10 09:00N 29°43' W 095°16'0 0.0
2017-Nov-10 08:30N 29°43' W 095°16'0 0.0
2017-Nov-10 08:00N 29°43' W 095°16'0 0.0
2017-Nov-10 07:30N 29°43' W 095°16'0 0.0
2017-Nov-10 07:00N 29°43' W 095°16'0 0.0
2017-Nov-10 06:30N 29°43' W 095°16'0 0.0
2017-Nov-10 06:00N 29°43' W 095°16'0 0.0
2017-Nov-10 05:30N 29°43' W 095°16'0 0.0
2017-Nov-10 05:00N 29°43' W 095°16'0 0.0
2017-Nov-10 04:30N 29°43' W 095°16'0 0.0
2017-Nov-10 04:00N 29°43' W 095°16'0 0.0
2017-Nov-10 03:29N 29°43' W 095°16'0 0.0
2017-Nov-10 02:58N 29°43' W 095°16'0 0.1
2017-Nov-10 02:30N 29°43' W 095°16'0 0.1
2017-Nov-10 01:57N 29°43' W 095°16'0 0.0
2017-Nov-10 01:28N 29°43' W 095°16'0 0.0
2017-Nov-10 01:00N 29°43' W 095°16'0 0.0
2017-Nov-10 00:29N 29°43' W 095°16'  

Dump ship's entire track history